Time;durP1;ratioP1;P1;durP2;ratioP2;P2;SDS_P1;SDS_P2;PMS_P1;PMS_P2;Temp;Humidity;BMP_temperature;BMP_pressure;BME280_temperature;BME280_humidity;BME280_pressure;Samples;Min_cycle;Max_cycle;Signal;HPM_P1;HPM_P2
2020/12/23 00:00:52;;;;;;;;;;;;;;;6.76;81.25;98139.03;1780278;79;24638;-89
2020/12/23 00:03:38;;;;;;;;;;;;;;;6.77;81.26;98140.67;1782028;80;20269;-88
2020/12/23 00:06:25;;;;;;;;;;;;;;;6.77;81.28;98132.03;1780634;79;24967;-88
2020/12/23 00:09:11;;;;;;;;;;;;;;;6.78;81.28;98140.22;1782332;79;22134;-89
2020/12/23 00:11:58;;;;;;;;;;;;;;;6.78;81.30;98138.91;1778099;79;26174;-88
2020/12/23 00:14:45;;;;;;;;;;;;;;;6.79;81.31;98144.03;1779182;79;24568;-88
2020/12/23 00:17:32;;;;;;;;;;;;;;;6.82;81.31;98149.53;1776250;80;20548;-88
2020/12/23 00:20:18;;;;;;;;;;;;;;;6.82;81.33;98156.84;1765787;80;25170;-89
2020/12/23 00:23:05;;;;;;;;;;;;;;;6.82;81.34;98151.64;1778746;79;22155;-88
2020/12/23 00:25:52;;;;;;;;;;;;;;;6.83;81.35;98153.32;1766006;79;26163;-88
2020/12/23 00:28:41;;;;;;;;;;;;;;;6.87;81.36;98161.80;1765548;79;24659;-89
2020/12/23 00:31:28;;;;;;;;;;;;;;;6.93;81.39;98173.11;1764516;79;20331;-88
2020/12/23 00:34:17;;;;;;;;;;;;;;;6.95;81.39;98187.72;1759100;80;24973;-89
2020/12/23 00:37:05;;;;;;;;;;;;;;;6.97;81.42;98191.08;1759155;80;22144;-88
2020/12/23 00:39:53;;;;;;;;;;;;;;;7.02;81.41;98205.11;1778312;80;26128;-89
2020/12/23 00:42:39;;;;;;;;;;;;;;;7.05;81.44;98209.66;1757710;80;24725;-88
2020/12/23 00:45:29;;;;;;;;;;;;;;;7.07;81.44;98197.87;1759925;80;20293;-88
2020/12/23 00:48:15;;;;;;;;;;;;;;;7.09;81.45;98197.32;1764216;79;24908;-88
2020/12/23 00:51:01;;;;;;;;;;;;;;;7.10;81.46;98191.16;1767604;79;22245;-90
2020/12/23 00:53:49;;;;;;;;;;;;;;;7.11;81.49;98196.28;1794923;78;26950;-89
2020/12/23 00:56:23;;;;;;;;;;;;;;;7.11;81.48;98205.85;1758721;80;25408;-89
2020/12/23 00:59:11;;;;;;;;;;;;;;;7.11;81.47;98202.80;1760748;80;20289;-89
2020/12/23 01:01:57;;;;;;;;;;;;;;;7.14;81.48;98208.30;1800095;78;26337;-91
2020/12/23 01:04:45;;;;;;;;;;;;;;;7.15;81.49;98204.73;1767064;80;22119;-90
2020/12/23 01:07:32;;;;;;;;;;;;;;;7.15;81.50;98200.83;1762871;80;26919;-90
2020/12/23 01:10:21;;;;;;;;;;;;;;;7.14;81.50;98201.33;1764995;80;25455;-89
2020/12/23 01:13:10;;;;;;;;;;;;;;;7.15;81.50;98202.13;1769631;80;20451;-90
2020/12/23 01:15:57;;;;;;;;;;;;;;;7.14;81.50;98192.22;1792978;78;24688;-89
2020/12/23 01:18:44;;;;;;;;;;;;;;;7.15;81.50;98197.77;1764253;80;22169;-89
2020/12/23 01:21:30;;;;;;;;;;;;;;;7.18;81.52;98189.41;1799794;78;25713;-89
2020/12/23 01:24:17;;;;;;;;;;;;;;;7.15;81.51;98184.76;1768285;80;25603;-88
2020/12/23 01:27:03;;;;;;;;;;;;;;;7.16;81.54;98176.48;1762961;80;20249;-89
2020/12/23 01:29:50;;;;;;;;;;;;;;;7.18;81.53;98175.10;1763975;80;24958;-89
2020/12/23 01:32:36;;;;;;;;;;;;;;;7.21;81.51;98165.80;1760363;79;22166;-90
2020/12/23 01:35:26;;;;;;;;;;;;;;;7.25;81.52;98167.31;1760306;80;26121;-90
2020/12/23 01:38:13;;;;;;;;;;;;;;;7.29;81.53;98168.33;1763136;80;25564;-89
2020/12/23 01:41:00;;;;;;;;;;;;;;;7.31;81.55;98164.34;1761616;80;20286;-90
2020/12/23 01:43:50;;;;;;;;;;;;;;;7.33;81.54;98158.55;1765732;79;24921;-90
2020/12/23 01:46:37;;;;;;;;;;;;;;;7.33;81.57;98152.89;1801312;78;21338;-90
2020/12/23 01:49:23;;;;;;;;;;;;;;;7.38;81.58;98163.84;1762208;80;26231;-89
2020/12/23 01:52:12;;;;;;;;;;;;;;;7.41;81.60;98163.68;1767549;80;24641;-89
2020/12/23 01:54:59;;;;;;;;;;;;;;;7.43;81.59;98163.56;1745907;80;20445;-89
2020/12/23 01:57:46;;;;;;;;;;;;;;;7.45;81.59;98170.83;1758366;80;25062;-89
2020/12/23 02:00:32;;;;;;;;;;;;;;;7.48;81.60;98168.86;1766610;80;22246;-89
2020/12/23 02:03:19;;;;;;;;;;;;;;;7.52;81.61;98174.73;1761734;80;26954;-89
2020/12/23 02:06:05;;;;;;;;;;;;;;;7.57;81.61;98171.37;1737767;80;24398;-90
2020/12/23 02:08:51;;;;;;;;;;;;;;;7.60;81.62;98162.06;1778299;78;20279;-89
2020/12/23 02:11:38;;;;;;;;;;;;;;;7.64;81.63;98169.23;1760549;80;25098;-89
2020/12/23 02:14:25;;;;;;;;;;;;;;;7.67;81.61;98163.36;1749444;80;23049;-89
2020/12/23 02:17:11;;;;;;;;;;;;;;;7.71;81.62;98171.80;1757924;79;25988;-89
2020/12/23 02:19:57;;;;;;;;;;;;;;;7.73;81.65;98164.75;1752280;80;24583;-88
2020/12/23 02:22:46;;;;;;;;;;;;;;;7.74;81.64;98165.96;1758951;80;20266;-89
2020/12/23 02:25:34;;;;;;;;;;;;;;;7.75;81.63;98151.98;1756537;80;25049;-89
2020/12/23 02:28:21;;;;;;;;;;;;;;;7.76;81.62;98152.35;1751653;80;21611;-89
2020/12/23 02:31:12;;;;;;;;;;;;;;;7.75;81.62;98159.80;1774871;79;25677;-89
2020/12/23 02:33:59;;;;;;;;;;;;;;;7.72;81.62;98148.74;1753441;80;25738;-89
2020/12/23 02:36:46;;;;;;;;;;;;;;;7.71;81.60;98154.41;1787524;78;20295;-89
2020/12/23 02:39:33;;;;;;;;;;;;;;;7.68;81.58;98165.03;1759648;80;24635;-89
2020/12/23 02:42:19;;;;;;;;;;;;;;;7.65;81.55;98170.42;1775030;80;22100;-89
2020/12/23 02:45:06;;;;;;;;;;;;;;;7.63;81.56;98167.09;1778474;79;26115;-88
2020/12/23 02:47:56;;;;;;;;;;;;;;;7.66;81.54;98165.59;1795309;79;24418;-88
2020/12/23 02:50:42;;;;;;;;;;;;;;;7.68;81.53;98158.98;1779758;79;20212;-89
2020/12/23 02:53:28;;;;;;;;;;;;;;;7.67;81.52;98162.52;1779922;79;24878;-89
2020/12/23 02:56:15;;;;;;;;;;;;;;;7.68;81.52;98157.69;1818298;78;21703;-89
2020/12/23 02:59:01;;;;;;;;;;;;;;;7.67;81.51;98151.64;1780505;79;26159;-89
2020/12/23 03:01:48;;;;;;;;;;;;;;;7.67;81.51;98158.61;1779107;79;25458;-90
2020/12/23 03:04:34;;;;;;;;;;;;;;;7.67;81.50;98151.64;1778837;79;20258;-90
2020/12/23 03:07:21;;;;;;;;;;;;;;;7.69;81.50;98156.27;1778028;79;25848;-90
2020/12/23 03:09:55;;;;;;;;;;;;;;;7.71;81.47;98160.09;1779258;78;22060;-89
2020/12/23 03:12:30;;;;;;;;;;;;;;;7.71;81.47;98158.32;1780616;80;26341;-89
2020/12/23 03:15:17;;;;;;;;;;;;;;;7.69;81.47;98166.69;1780108;79;24587;-89
2020/12/23 03:18:03;;;;;;;;;;;;;;;7.68;81.45;98167.64;1756952;80;20514;-89
2020/12/23 03:20:50;;;;;;;;;;;;;;;7.66;81.45;98164.28;1782085;79;24841;-89
2020/12/23 03:23:36;;;;;;;;;;;;;;;7.68;81.44;98147.27;1787030;80;22133;-89
2020/12/23 03:26:23;;;;;;;;;;;;;;;7.69;81.43;98143.73;1785108;79;26065;-90
2020/12/23 03:29:09;;;;;;;;;;;;;;;7.67;81.42;98133.41;1787091;79;25287;-90
2020/12/23 03:31:56;;;;;;;;;;;;;;;7.68;81.42;98122.53;1786734;80;20497;-89
2020/12/23 03:34:42;;;;;;;;;;;;;;;7.68;81.44;98118.16;1766283;80;25033;-90
2020/12/23 03:37:31;;;;;;;;;;;;;;;7.68;81.43;98115.55;1786893;80;22340;-89
2020/12/23 03:40:17;;;;;;;;;;;;;;;7.69;81.45;98119.00;1786500;80;26122;-90
2020/12/23 03:43:05;;;;;;;;;;;;;;;7.69;81.47;98117.20;1787150;79;24899;-89
2020/12/23 03:45:51;;;;;;;;;;;;;;;7.71;81.49;98115.34;1786556;80;20302;-90
2020/12/23 03:48:38;;;;;;;;;;;;;;;7.73;81.53;98117.86;1794467;79;24283;-88
2020/12/23 03:51:25;;;;;;;;;;;;;;;7.74;81.53;98117.77;1784088;80;21532;-89
2020/12/23 03:54:14;;;;;;;;;;;;;;;7.77;81.55;98121.94;1786642;80;26080;-88
2020/12/23 03:57:01;;;;;;;;;;;;;;;7.79;81.57;98130.50;1784911;79;24676;-88
2020/12/23 03:59:50;;;;;;;;;;;;;;;7.80;81.60;98128.27;1786744;80;20334;-88
2020/12/23 04:02:36;;;;;;;;;;;;;;;7.79;81.64;98130.04;1784412;80;25754;-88
2020/12/23 04:05:22;;;;;;;;;;;;;;;7.80;81.67;98125.17;1786334;80;22237;-88
2020/12/23 04:08:09;;;;;;;;;;;;;;;7.80;81.69;98119.96;1792030;79;25966;-88
2020/12/23 04:10:55;;;;;;;;;;;;;;;7.81;81.74;98128.61;1793886;79;24506;-88
2020/12/23 04:13:42;;;;;;;;;;;;;;;7.83;81.73;98125.00;1788139;79;20486;-88
2020/12/23 04:16:29;;;;;;;;;;;;;;;7.82;81.78;98127.69;1788994;80;24961;-90
2020/12/23 04:19:16;;;;;;;;;;;;;;;7.77;81.81;98124.54;1787992;80;22168;-91
2020/12/23 04:22:03;;;;;;;;;;;;;;;7.76;81.82;98115.89;1788992;80;26128;-91
2020/12/23 04:24:50;;;;;;;;;;;;;;;7.77;81.86;98112.82;1788753;80;24585;-91
2020/12/23 04:27:24;;;;;;;;;;;;;;;7.76;81.87;98122.86;1788935;80;20215;-89
2020/12/23 04:30:15;;;;;;;;;;;;;;;7.74;81.87;98121.68;1789432;80;25072;-89
2020/12/23 04:33:01;;;;;;;;;;;;;;;7.72;81.90;98128.74;1789403;79;23089;-90
2020/12/23 04:35:49;;;;;;;;;;;;;;;7.75;81.93;98140.72;1788192;78;26076;-90
2020/12/23 04:38:35;;;;;;;;;;;;;;;7.73;81.96;98134.80;1787170;80;24620;-90
2020/12/23 04:41:22;;;;;;;;;;;;;;;7.72;81.99;98145.67;1789289;80;20211;-90
2020/12/23 04:44:08;;;;;;;;;;;;;;;7.71;82.00;98140.09;1791103;80;24908;-89
2020/12/23 04:46:55;;;;;;;;;;;;;;;7.75;82.02;98149.37;1789612;79;22156;-89
2020/12/23 04:49:42;;;;;;;;;;;;;;;7.74;82.04;98149.03;1787215;79;26023;-89
2020/12/23 04:52:31;;;;;;;;;;;;;;;7.70;82.09;98141.48;1788232;79;24568;-89
2020/12/23 04:55:17;;;;;;;;;;;;;;;7.71;82.10;98147.06;1787343;79;20298;-89
2020/12/23 04:58:04;;;;;;;;;;;;;;;7.71;82.11;98131.44;1787837;80;24897;-89
2020/12/23 05:00:53;;;;;;;;;;;;;;;7.69;82.15;98134.63;1788461;80;23116;-90
2020/12/23 05:03:39;;;;;;;;;;;;;;;7.71;82.15;98127.53;1826103;78;25835;-89
2020/12/23 05:06:31;;;;;;;;;;;;;;;7.71;82.18;98127.53;1790783;79;24782;-90
2020/12/23 05:09:18;;;;;;;;;;;;;;;7.74;82.19;98119.54;1787625;80;20600;-89
2020/12/23 05:12:04;;;;;;;;;;;;;;;7.67;82.22;98113.88;1787529;80;24986;-88
2020/12/23 05:14:51;;;;;;;;;;;;;;;7.68;82.24;98116.02;1789565;80;22148;-89
2020/12/23 05:17:39;;;;;;;;;;;;;;;7.68;82.24;98115.55;1789016;80;26118;-88
2020/12/23 05:20:26;;;;;;;;;;;;;;;7.67;82.27;98115.64;1787796;80;24512;-89
2020/12/23 05:23:13;;;;;;;;;;;;;;;7.71;82.28;98106.23;1766776;80;20293;-88
2020/12/23 05:26:01;;;;;;;;;;;;;;;7.70;82.31;98094.13;1825193;76;24774;-88
2020/12/23 05:28:48;;;;;;;;;;;;;;;7.69;82.31;98098.97;1789349;80;22165;-88
2020/12/23 05:31:34;;;;;;;;;;;;;;;7.69;82.33;98104.17;1789805;80;26241;-88
2020/12/23 05:34:21;;;;;;;;;;;;;;;7.68;82.35;98101.23;1788550;80;24585;-88
2020/12/23 05:37:08;;;;;;;;;;;;;;;7.67;82.35;98099.55;1824564;78;20246;-88
2020/12/23 05:39:58;;;;;;;;;;;;;;;7.64;82.36;98093.72;1788738;80;25011;-88
2020/12/23 05:42:44;;;;;;;;;;;;;;;7.64;82.38;98085.90;1788770;80;21329;-88
2020/12/23 05:45:30;;;;;;;;;;;;;;;7.65;82.40;98096.66;1788599;80;25928;-88
2020/12/23 05:48:17;;;;;;;;;;;;;;;7.62;82.41;98095.56;1787105;80;24583;-88
2020/12/23 05:51:05;;;;;;;;;;;;;;;7.62;82.44;98095.11;1787869;80;20356;-89
2020/12/23 05:53:51;;;;;;;;;;;;;;;7.61;82.48;98083.01;1787400;79;24971;-88
2020/12/23 05:56:38;;;;;;;;;;;;;;;7.63;82.49;98084.22;1787890;80;22023;-88
2020/12/23 05:59:24;;;;;;;;;;;;;;;7.61;82.50;98084.77;1789322;80;26149;-89
2020/12/23 06:02:12;;;;;;;;;;;;;;;7.62;82.51;98095.56;1786904;80;23975;-89
2020/12/23 06:04:58;;;;;;;;;;;;;;;7.62;82.55;98097.70;1788550;80;20373;-89
2020/12/23 06:07:45;;;;;;;;;;;;;;;7.58;82.57;98095.74;1787408;79;25088;-88
2020/12/23 06:10:32;;;;;;;;;;;;;;;7.57;82.59;98090.66;1753787;78;22104;-89
2020/12/23 06:13:19;;;;;;;;;;;;;;;7.55;82.62;98092.05;1748781;80;26194;-88
2020/12/23 06:16:05;;;;;;;;;;;;;;;7.54;82.64;98089.53;1743470;80;24627;-88
2020/12/23 06:18:52;;;;;;;;;;;;;;;7.54;82.66;98090.83;1763157;79;20564;-88
2020/12/23 06:21:39;;;;;;;;;;;;;;;7.53;82.67;98097.80;1776490;79;25614;-88
2020/12/23 06:24:28;;;;;;;;;;;;;;;7.49;82.71;98098.09;1757009;80;22281;-89
2020/12/23 06:27:15;;;;;;;;;;;;;;;7.49;82.72;98108.05;1777901;80;27031;-89
2020/12/23 06:30:01;;;;;;;;;;;;;;;7.48;82.75;98105.53;1762511;80;24691;-88
2020/12/23 06:32:49;;;;;;;;;;;;;;;7.45;82.76;98109.18;1778125;80;20311;-89
2020/12/23 06:35:38;;;;;;;;;;;;;;;7.45;82.79;98109.18;1775655;80;25644;-89
2020/12/23 06:38:25;;;;;;;;;;;;;;;7.46;82.82;98108.72;1818445;78;22144;-88
2020/12/23 06:41:12;;;;;;;;;;;;;;;7.46;82.82;98116.53;1777467;80;26193;-89
2020/12/23 06:44:01;;;;;;;;;;;;;;;7.44;82.87;98113.17;1778375;80;25538;-88
2020/12/23 06:46:48;;;;;;;;;;;;;;;7.47;82.87;98107.80;1778020;80;20564;-89
2020/12/23 06:49:34;;;;;;;;;;;;;;;7.48;82.90;98106.83;1780108;80;24965;-88
2020/12/23 06:52:20;;;;;;;;;;;;;;;7.52;82.91;98112.24;1779159;80;22129;-88
2020/12/23 06:55:07;;;;;;;;;;;;;;;7.52;82.94;98106.58;1778667;80;26149;-89
2020/12/23 06:57:57;;;;;;;;;;;;;;;7.57;82.97;98110.19;1781334;80;24812;-88
2020/12/23 07:00:46;;;;;;;;;;;;;;;7.60;82.99;98107.38;1815639;78;20312;-89
2020/12/23 07:03:32;;;;;;;;;;;;;;;7.63;83.01;98107.20;1778672;80;24841;-89
2020/12/23 07:06:21;;;;;;;;;;;;;;;7.62;83.02;98117.23;1789501;79;21911;-88
2020/12/23 07:09:07;;;;;;;;;;;;;;;7.67;83.05;98118.25;1816277;77;25454;-88
2020/12/23 07:11:55;;;;;;;;;;;;;;;7.67;83.07;98115.17;1785817;79;24694;-88
2020/12/23 07:14:41;;;;;;;;;;;;;;;7.69;83.09;98113.30;1796937;79;20396;-89
2020/12/23 07:17:28;;;;;;;;;;;;;;;7.69;83.12;98115.90;1797853;79;25824;-89
2020/12/23 07:20:18;;;;;;;;;;;;;;;7.71;83.14;98118.41;1789677;79;21692;-88
2020/12/23 07:23:04;;;;;;;;;;;;;;;7.74;83.15;98111.73;1776171;79;26998;-88
2020/12/23 07:25:51;;;;;;;;;;;;;;;7.77;83.17;98121.47;1795111;78;24577;-88
2020/12/23 07:28:38;;;;;;;;;;;;;;;7.80;83.18;98119.96;1798388;78;20557;-89
2020/12/23 07:31:25;;;;;;;;;;;;;;;7.85;83.19;98124.44;1789731;78;24857;-88
2020/12/23 07:34:11;;;;;;;;;;;;;;;7.88;83.21;98123.39;1798409;78;22285;-89
2020/12/23 07:36:58;;;;;;;;;;;;;;;7.87;83.23;98125.63;1830287;77;26915;-89
2020/12/23 07:39:45;;;;;;;;;;;;;;;7.91;83.24;98133.14;1832386;77;24847;-89
2020/12/23 07:42:32;;;;;;;;;;;;;;;7.92;83.24;98133.98;1797465;79;20394;-89
2020/12/23 07:45:18;;;;;;;;;;;;;;;7.97;83.25;98134.05;1799011;78;25018;-89
2020/12/23 07:48:06;;;;;;;;;;;;;;;7.95;83.28;98133.80;1808673;78;22590;-89
2020/12/23 07:50:53;;;;;;;;;;;;;;;7.98;83.27;98141.41;1794927;79;26105;-89
2020/12/23 07:53:40;;;;;;;;;;;;;;;7.97;83.31;98142.34;1798816;78;24576;-89
2020/12/23 07:56:27;;;;;;;;;;;;;;;8.06;83.29;98144.38;1797369;79;20232;-89
2020/12/23 07:59:14;;;;;;;;;;;;;;;8.08;83.32;98141.18;1795465;79;25701;-89
2020/12/23 08:02:01;;;;;;;;;;;;;;;8.14;83.31;98143.86;1797912;79;22103;-89
2020/12/23 08:04:48;;;;;;;;;;;;;;;8.22;83.32;98145.52;1798589;78;26107;-88
2020/12/23 08:07:35;;;;;;;;;;;;;;;8.26;83.33;98141.30;1791027;79;24368;-89
2020/12/23 08:10:22;;;;;;;;;;;;;;;8.27;83.34;98138.23;1831441;77;20340;-89
2020/12/23 08:13:11;;;;;;;;;;;;;;;8.36;83.35;98143.70;1817287;77;25161;-90
2020/12/23 08:16:00;;;;;;;;;;;;;;;8.40;83.35;98139.11;1782596;79;22163;-89
2020/12/23 08:18:35;;;;;;;;;;;;;;;8.43;83.36;98133.72;1779775;79;26871;-89
2020/12/23 08:21:22;;;;;;;;;;;;;;;8.47;83.35;98123.44;1780289;80;25667;-89
2020/12/23 08:24:09;;;;;;;;;;;;;;;8.48;83.37;98125.12;1781635;79;20270;-90
2020/12/23 08:29:59;;;;;;;;;;;;;;;8.54;83.36;98128.63;1782149;80;22363;-89
2020/12/23 08:32:49;;;;;;;;;;;;;;;8.53;83.36;98135.23;1779378;79;26124;-89
2020/12/23 08:35:35;;;;;;;;;;;;;;;8.45;83.35;98137.07;1780588;79;24670;-89
2020/12/23 08:38:23;;;;;;;;;;;;;;;8.35;83.35;98130.77;1769579;80;20261;-89
2020/12/23 08:41:12;;;;;;;;;;;;;;;8.29;83.33;98133.77;1781160;80;25067;-89
2020/12/23 08:43:59;;;;;;;;;;;;;;;8.27;83.30;98137.77;1781568;79;22952;-89
2020/12/23 08:46:46;;;;;;;;;;;;;;;8.27;83.29;98141.67;1820220;78;26190;-89
2020/12/23 08:49:33;;;;;;;;;;;;;;;8.29;83.27;98141.09;1784221;79;24544;-89
2020/12/23 08:52:23;;;;;;;;;;;;;;;8.33;83.27;98143.08;1788467;80;20484;-90
2020/12/23 08:55:10;;;;;;;;;;;;;;;8.37;83.23;98141.94;1788617;79;24866;-90
2020/12/23 08:57:57;;;;;;;;;;;;;;;8.39;83.27;98143.98;1789253;80;22143;-90
2020/12/23 09:00:46;;;;;;;;;;;;;;;8.35;83.25;98142.49;1788505;80;26197;-89
2020/12/23 09:03:33;;;;;;;;;;;;;;;8.33;83.27;98148.30;1788856;80;24666;-88
2020/12/23 09:06:19;;;;;;;;;;;;;;;8.37;83.27;98141.94;1786786;80;20424;-89
2020/12/23 09:09:08;;;;;;;;;;;;;;;8.37;83.25;98152.36;1787940;79;24874;-90
2020/12/23 09:11:54;;;;;;;;;;;;;;;8.35;83.26;98152.92;1787823;79;22313;-90
2020/12/23 09:14:41;;;;;;;;;;;;;;;8.36;83.25;98154.14;1785299;80;26093;-89
2020/12/23 09:17:27;;;;;;;;;;;;;;;8.46;83.25;98150.91;1765302;80;25237;-88
2020/12/23 09:20:14;;;;;;;;;;;;;;;8.49;83.23;98146.36;1786388;79;20261;-88
2020/12/23 09:23:01;;;;;;;;;;;;;;;8.55;83.24;98133.37;1786885;80;24880;-88
2020/12/23 09:25:51;;;;;;;;;;;;;;;8.56;83.25;98141.58;1784495;80;22161;-88
2020/12/23 09:28:38;;;;;;;;;;;;;;;8.56;83.27;98139.80;1787046;80;26102;-89
2020/12/23 09:31:26;;;;;;;;;;;;;;;8.61;83.26;98146.86;1786868;79;24551;-88
2020/12/23 09:34:17;;;;;;;;;;;;;;;8.65;83.26;98139.65;1785077;80;20536;-89
2020/12/23 09:37:04;;;;;;;;;;;;;;;8.63;83.27;98133.69;1786001;79;24868;-88
2020/12/23 09:39:51;;;;;;;;;;;;;;;8.51;83.28;98128.81;1785962;79;22139;-88
2020/12/23 09:42:37;;;;;;;;;;;;;;;8.52;83.26;98129.19;1784737;80;26092;-88
2020/12/23 09:45:27;;;;;;;;;;;;;;;8.52;83.24;98126.58;1786233;80;24659;-88
2020/12/23 09:48:14;;;;;;;;;;;;;;;8.54;83.23;98119.97;1787018;79;20553;-87
2020/12/23 09:51:00;;;;;;;;;;;;;;;8.58;83.20;98118.81;1786675;79;25113;-88
2020/12/23 09:53:46;;;;;;;;;;;;;;;8.54;83.22;98116.89;1786409;79;22032;-88
2020/12/23 09:56:33;;;;;;;;;;;;;;;8.54;83.21;98118.19;1788846;79;26197;-87
2020/12/23 09:59:20;;;;;;;;;;;;;;;8.61;83.20;98118.16;1786498;80;24628;-87
2020/12/23 10:02:06;;;;;;;;;;;;;;;8.68;83.17;98123.78;1786043;80;20286;-87
2020/12/23 10:04:54;;;;;;;;;;;;;;;8.76;83.15;98128.03;1785547;79;24912;-88
2020/12/23 10:07:40;;;;;;;;;;;;;;;8.80;83.15;98131.63;1788431;79;22188;-88
2020/12/23 10:10:27;;;;;;;;;;;;;;;8.80;83.15;98119.88;1785274;79;26189;-87
2020/12/23 10:13:14;;;;;;;;;;;;;;;8.80;83.17;98108.61;1787852;78;24673;-88
2020/12/23 10:16:03;;;;;;;;;;;;;;;8.81;83.16;98105.06;1767255;79;20525;-89
2020/12/23 10:18:50;;;;;;;;;;;;;;;8.77;83.18;98095.31;1751861;80;24916;-88
2020/12/23 10:21:37;;;;;;;;;;;;;;;8.87;83.15;98093.38;1760821;80;21777;-89
2020/12/23 10:24:25;;;;;;;;;;;;;;;8.81;83.15;98099.38;1779129;80;26267;-89
2020/12/23 10:27:11;;;;;;;;;;;;;;;8.75;83.13;98095.88;1777767;80;24620;-88
2020/12/23 10:29:58;;;;;;;;;;;;;;;8.67;83.11;98102.56;1776936;80;20441;-88
2020/12/23 10:32:44;;;;;;;;;;;;;;;8.57;83.11;98099.72;1779249;79;25047;-89
2020/12/23 10:35:35;;;;;;;;;;;;;;;8.55;83.08;98115.96;1778137;79;22426;-88
2020/12/23 10:38:21;;;;;;;;;;;;;;;8.51;83.05;98107.95;1781394;79;26382;-88
2020/12/23 10:41:08;;;;;;;;;;;;;;;8.47;83.04;98101.73;1776695;80;24575;-87
2020/12/23 10:43:55;;;;;;;;;;;;;;;8.45;83.02;98102.33;1777350;79;20525;-88
2020/12/23 10:46:43;;;;;;;;;;;;;;;8.44;83.01;98092.37;1775858;79;25770;-88
2020/12/23 10:49:31;;;;;;;;;;;;;;;8.47;83.00;98086.94;1800529;77;22518;-87
2020/12/23 10:52:18;;;;;;;;;;;;;;;8.43;82.99;98082.87;1789441;78;26134;-88
2020/12/23 10:55:07;;;;;;;;;;;;;;;8.39;83.01;98072.28;1738845;80;25263;-88
2020/12/23 10:57:53;;;;;;;;;;;;;;;8.35;83.00;98059.06;1777889;79;20488;-88
2020/12/23 11:00:40;;;;;;;;;;;;;;;8.28;83.01;98052.58;1774511;80;24921;-87
2020/12/23 11:03:28;;;;;;;;;;;;;;;8.25;82.99;98048.85;1777864;80;22376;-87
2020/12/23 11:06:14;;;;;;;;;;;;;;;8.27;83.00;98053.05;1778320;80;27093;-88
2020/12/23 11:09:03;;;;;;;;;;;;;;;8.30;83.00;98055.93;1779206;80;24548;-88
2020/12/23 11:11:50;;;;;;;;;;;;;;;8.26;83.00;98060.49;1776717;80;20618;-89
2020/12/23 11:14:37;;;;;;;;;;;;;;;8.27;83.00;98055.66;1790336;79;24863;-88
2020/12/23 11:17:26;;;;;;;;;;;;;;;8.27;83.02;98051.73;1789778;79;21867;-88
2020/12/23 11:20:12;;;;;;;;;;;;;;;8.26;83.04;98053.97;1798675;78;26100;-89
2020/12/23 11:23:00;;;;;;;;;;;;;;;8.26;83.05;98059.19;1796700;79;25395;-89
2020/12/23 11:25:49;;;;;;;;;;;;;;;8.28;83.01;98062.54;1775154;79;20438;-91
2020/12/23 11:28:35;;;;;;;;;;;;;;;8.28;83.04;98066.91;1797127;78;26191;-90
2020/12/23 11:31:26;;;;;;;;;;;;;;;8.25;83.07;98068.41;1796248;78;22146;-88
2020/12/23 11:34:12;;;;;;;;;;;;;;;8.21;83.07;98063.88;1795162;79;26466;-89
2020/12/23 11:37:01;;;;;;;;;;;;;;;8.24;83.06;98056.30;1793358;78;24861;-90
2020/12/23 11:39:48;;;;;;;;;;;;;;;8.26;83.08;98062.26;1795199;79;20489;-89
2020/12/23 11:42:41;;;;;;;;;;;;;;;8.28;83.08;98059.09;1778347;79;24899;-89
2020/12/23 11:45:23;;;;;;;;;;;;;;;8.32;83.11;98057.52;1796752;79;22122;-89
2020/12/23 11:48:13;;;;;;;;;;;;;;;8.30;83.13;98030.70;1778057;79;27051;-89
2020/12/23 11:51:01;;;;;;;;;;;;;;;8.31;83.13;98026.32;1798339;79;25525;-89
2020/12/23 11:53:48;;;;;;;;;;;;;;;8.37;83.15;98038.95;1802824;79;20268;-90
2020/12/23 11:56:35;;;;;;;;;;;;;;;8.43;83.15;98042.92;1795082;79;24521;-89
2020/12/23 11:59:23;;;;;;;;;;;;;;;8.41;83.18;98043.02;1776258;79;22085;-90
2020/12/23 12:02:10;;;;;;;;;;;;;;;8.37;83.19;98034.58;1777450;79;27039;-89
2020/12/23 12:05:03;;;;;;;;;;;;;;;8.35;83.19;98030.38;1774320;79;24769;-88
2020/12/23 12:07:50;;;;;;;;;;;;;;;8.35;83.21;98032.98;1773321;79;20520;-88
2020/12/23 12:10:37;;;;;;;;;;;;;;;8.35;83.22;98041.65;1813278;77;24826;-88
2020/12/23 12:13:23;;;;;;;;;;;;;;;8.36;83.22;98038.11;1754806;80;22286;-88
2020/12/23 12:19:39;;;;;;;;;;;;;;;8.43;83.21;98055.48;1772174;78;22509;-88
2020/12/23 12:22:27;;;;;;;;;;;;;;;8.42;83.24;98054.28;1769904;80;20261;-88
2020/12/23 12:25:16;;;;;;;;;;;;;;;8.42;83.25;98055.12;1780473;79;24525;-88
2020/12/23 12:28:03;;;;;;;;;;;;;;;8.42;83.25;98052.52;1772614;79;21916;-88
2020/12/23 12:30:50;;;;;;;;;;;;;;;8.39;83.25;98047.52;1766520;80;26113;-88
2020/12/23 12:33:36;;;;;;;;;;;;;;;8.34;83.27;98034.80;1774876;80;24963;-88
2020/12/23 12:36:24;;;;;;;;;;;;;;;8.34;83.28;98032.66;1778982;80;20501;-89
2020/12/23 12:39:11;;;;;;;;;;;;;;;8.38;83.26;98025.81;1775364;80;24971;-89
2020/12/23 12:41:58;;;;;;;;;;;;;;;8.39;83.29;98034.48;1813517;77;22935;-89
2020/12/23 12:44:44;;;;;;;;;;;;;;;8.39;83.28;98030.56;1778645;80;26919;-89
2020/12/23 12:47:31;;;;;;;;;;;;;;;8.37;83.30;98033.27;1782079;80;24584;-88
2020/12/23 12:50:24;;;;;;;;;;;;;;;8.40;83.30;98029.14;1739090;80;20473;-88
2020/12/23 12:53:12;;;;;;;;;;;;;;;8.47;83.29;98020.44;1780832;80;25003;-89
2020/12/23 12:55:45;;;;;;;;;;;;;;;8.50;83.31;98027.23;1747061;80;22253;-88
2020/12/23 12:58:32;;;;;;;;;;;;;;;8.42;83.35;98037.33;1778141;80;26350;-89
2020/12/23 13:01:19;;;;;;;;;;;;;;;8.51;83.33;98045.86;1761133;79;25538;-89
2020/12/23 13:03:54;;;;;;;;;;;;;;;8.56;83.34;98051.13;1771208;80;20300;-88
2020/12/23 13:06:43;;;;;;;;;;;;;;;8.63;83.33;98046.30;1773304;80;25879;-89
2020/12/23 13:09:30;;;;;;;;;;;;;;;8.65;83.34;98040.06;1756720;79;22155;-88
2020/12/23 13:12:17;;;;;;;;;;;;;;;8.74;83.33;98040.72;1776813;80;26167;-89
2020/12/23 13:15:04;;;;;;;;;;;;;;;8.85;83.34;98040.45;1769646;80;24799;-89
2020/12/23 13:17:53;;;;;;;;;;;;;;;8.88;83.35;98044.17;1781448;80;20273;-88
2020/12/23 13:20:39;;;;;;;;;;;;;;;8.87;83.38;98046.41;1801484;77;24602;-90
2020/12/23 13:23:25;;;;;;;;;;;;;;;8.89;83.38;98054.48;1778886;80;22146;-89
2020/12/23 13:26:15;;;;;;;;;;;;;;;8.84;83.38;98050.55;1771459;80;26324;-88
2020/12/23 13:29:02;;;;;;;;;;;;;;;8.78;83.39;98054.41;1751738;80;24386;-89
2020/12/23 13:31:49;;;;;;;;;;;;;;;8.83;83.37;98056.70;1776732;79;20641;-88
2020/12/23 13:34:36;;;;;;;;;;;;;;;8.90;83.35;98046.19;1784081;80;20162;-90
2020/12/23 13:37:23;;;;;;;;;;;;;;;8.90;83.35;98047.02;1812994;77;22665;-89
2020/12/23 13:40:10;;;;;;;;;;;;;;;8.89;83.34;98045.84;1776101;79;26194;-90
2020/12/23 13:42:59;;;;;;;;;;;;;;;8.96;83.33;98047.06;1770030;80;24592;-90
2020/12/23 13:45:45;;;;;;;;;;;;;;;8.98;83.31;98056.47;1775037;80;20289;-90
2020/12/23 13:48:32;;;;;;;;;;;;;;;9.00;83.31;98061.59;1811850;77;24637;-90
2020/12/23 13:51:19;;;;;;;;;;;;;;;9.07;83.29;98064.13;1777869;80;22202;-89
2020/12/23 13:54:05;;;;;;;;;;;;;;;9.07;83.29;98060.20;1781251;80;27336;-88
2020/12/23 13:56:51;;;;;;;;;;;;;;;9.09;83.27;98057.87;1770443;80;25362;-89
2020/12/23 13:59:38;;;;;;;;;;;;;;;9.13;83.28;98053.26;1778497;80;20572;-88
2020/12/23 14:02:26;;;;;;;;;;;;;;;9.12;83.26;98047.66;1776159;80;24169;-88
2020/12/23 14:05:13;;;;;;;;;;;;;;;9.08;83.29;98048.36;1766757;79;22898;-89
2020/12/23 14:07:59;;;;;;;;;;;;;;;9.11;83.26;98048.63;1775691;80;26230;-89
2020/12/23 14:10:45;;;;;;;;;;;;;;;9.24;83.24;98045.50;1734133;80;24593;-88
2020/12/23 14:13:31;;;;;;;;;;;;;;;9.34;83.22;98045.22;1765952;78;20359;-88
2020/12/23 14:16:20;;;;;;;;;;;;;;;9.38;83.19;98047.16;1761655;80;24903;-88
2020/12/23 14:19:07;;;;;;;;;;;;;;;9.41;83.19;98045.15;1794329;78;21934;-88
2020/12/23 14:21:54;;;;;;;;;;;;;;;9.46;83.18;98044.81;1765258;80;26275;-88
2020/12/23 14:24:42;;;;;;;;;;;;;;;9.49;83.17;98038.89;1766406;79;24138;-89
2020/12/23 14:27:33;;;;;;;;;;;;;;;9.52;83.14;98036.54;1787559;78;20511;-88
2020/12/23 14:30:20;;;;;;;;;;;;;;;9.41;83.17;98031.25;1759558;80;24920;-88
2020/12/23 14:33:07;;;;;;;;;;;;;;;9.27;83.16;98030.11;1790773;78;22676;-88
2020/12/23 14:35:54;;;;;;;;;;;;;;;9.20;83.14;98024.48;1761434;80;26195;-88
2020/12/23 14:38:42;;;;;;;;;;;;;;;9.17;83.11;98024.21;1753124;80;25461;-89
2020/12/23 14:41:30;;;;;;;;;;;;;;;9.16;83.08;98025.65;1763263;80;20364;-90
2020/12/23 14:44:17;;;;;;;;;;;;;;;9.11;83.04;98022.53;1762560;80;24929;-89
2020/12/23 14:47:04;;;;;;;;;;;;;;;9.09;83.01;98027.02;1756558;80;22988;-89